sensor_id;sensor_type;location;lat;lon;timestamp;P1;durP1;ratioP1;P2;durP2;ratioP2
3249;SDS011;1637;42.020;23.992;2023-04-15T00:01:09;10.00;;;4.90;;
3249;SDS011;1637;42.020;23.992;2023-04-15T00:03:37;10.30;;;6.70;;
3249;SDS011;1637;42.020;23.992;2023-04-15T00:06:04;10.93;;;5.73;;
3249;SDS011;1637;42.020;23.992;2023-04-15T00:08:33;14.53;;;6.20;;
3249;SDS011;1637;42.020;23.992;2023-04-15T00:10:59;8.83;;;5.50;;
3249;SDS011;1637;42.020;23.992;2023-04-15T00:13:29;9.93;;;4.43;;
3249;SDS011;1637;42.020;23.992;2023-04-15T00:15:56;10.97;;;5.10;;
3249;SDS011;1637;42.020;23.992;2023-04-15T00:18:23;6.57;;;2.70;;
3249;SDS011;1637;42.020;23.992;2023-04-15T00:20:50;3.50;;;2.27;;
3249;SDS011;1637;42.020;23.992;2023-04-15T00:23:17;6.30;;;2.60;;
3249;SDS011;1637;42.020;23.992;2023-04-15T00:25:46;5.87;;;2.77;;
3249;SDS011;1637;42.020;23.992;2023-04-15T00:28:12;7.53;;;3.80;;
3249;SDS011;1637;42.020;23.992;2023-04-15T00:30:39;5.23;;;3.70;;
3249;SDS011;1637;42.020;23.992;2023-04-15T00:33:06;12.30;;;5.10;;
3249;SDS011;1637;42.020;23.992;2023-04-15T00:35:33;10.10;;;5.30;;
3249;SDS011;1637;42.020;23.992;2023-04-15T00:38:01;22.03;;;8.60;;
3249;SDS011;1637;42.020;23.992;2023-04-15T00:40:28;25.13;;;10.43;;
3249;SDS011;1637;42.020;23.992;2023-04-15T00:42:57;27.00;;;9.03;;
3249;SDS011;1637;42.020;23.992;2023-04-15T00:45:24;49.63;;;16.47;;
3249;SDS011;1637;42.020;23.992;2023-04-15T00:47:51;46.80;;;18.60;;
3249;SDS011;1637;42.020;23.992;2023-04-15T00:50:18;24.60;;;11.10;;
3249;SDS011;1637;42.020;23.992;2023-04-15T00:52:45;20.70;;;8.80;;
3249;SDS011;1637;42.020;23.992;2023-04-15T00:55:12;16.00;;;7.37;;
3249;SDS011;1637;42.020;23.992;2023-04-15T00:57:39;21.00;;;7.47;;
3249;SDS011;1637;42.020;23.992;2023-04-15T01:00:07;10.23;;;5.83;;
3249;SDS011;1637;42.020;23.992;2023-04-15T01:02:36;13.87;;;6.53;;
3249;SDS011;1637;42.020;23.992;2023-04-15T01:05:03;5.00;;;3.10;;
3249;SDS011;1637;42.020;23.992;2023-04-15T01:07:31;4.10;;;3.47;;
3249;SDS011;1637;42.020;23.992;2023-04-15T01:09:58;8.77;;;4.10;;
3249;SDS011;1637;42.020;23.992;2023-04-15T01:12:25;16.00;;;6.10;;
3249;SDS011;1637;42.020;23.992;2023-04-15T01:14:53;8.30;;;4.87;;
3249;SDS011;1637;42.020;23.992;2023-04-15T01:17:22;16.80;;;8.17;;
3249;SDS011;1637;42.020;23.992;2023-04-15T01:19:49;16.80;;;7.80;;
3249;SDS011;1637;42.020;23.992;2023-04-15T01:22:16;8.13;;;4.10;;
3249;SDS011;1637;42.020;23.992;2023-04-15T01:24:44;10.97;;;3.50;;
3249;SDS011;1637;42.020;23.992;2023-04-15T01:27:22;10.90;;;3.47;;
3249;SDS011;1637;42.020;23.992;2023-04-15T01:29:49;7.13;;;3.40;;
3249;SDS011;1637;42.020;23.992;2023-04-15T01:32:16;9.50;;;5.37;;
3249;SDS011;1637;42.020;23.992;2023-04-15T01:34:44;17.77;;;8.00;;
3249;SDS011;1637;42.020;23.992;2023-04-15T01:37:10;16.23;;;6.60;;
3249;SDS011;1637;42.020;23.992;2023-04-15T01:39:37;12.80;;;6.17;;
3249;SDS011;1637;42.020;23.992;2023-04-15T01:42:05;11.60;;;6.57;;
3249;SDS011;1637;42.020;23.992;2023-04-15T01:44:33;14.43;;;7.50;;
3249;SDS011;1637;42.020;23.992;2023-04-15T01:47:00;15.87;;;7.23;;
3249;SDS011;1637;42.020;23.992;2023-04-15T01:49:27;12.53;;;7.53;;
3249;SDS011;1637;42.020;23.992;2023-04-15T01:51:54;17.00;;;7.80;;
3249;SDS011;1637;42.020;23.992;2023-04-15T01:54:20;13.33;;;6.80;;
3249;SDS011;1637;42.020;23.992;2023-04-15T01:56:47;15.57;;;6.83;;
3249;SDS011;1637;42.020;23.992;2023-04-15T01:59:14;14.40;;;8.40;;
3249;SDS011;1637;42.020;23.992;2023-04-15T02:01:43;14.60;;;7.97;;
3249;SDS011;1637;42.020;23.992;2023-04-15T02:04:10;22.93;;;12.60;;
3249;SDS011;1637;42.020;23.992;2023-04-15T02:06:40;17.27;;;7.80;;
3249;SDS011;1637;42.020;23.992;2023-04-15T02:09:07;9.03;;;4.77;;
3249;SDS011;1637;42.020;23.992;2023-04-15T02:11:34;12.67;;;5.70;;
3249;SDS011;1637;42.020;23.992;2023-04-15T02:14:03;10.47;;;4.67;;
3249;SDS011;1637;42.020;23.992;2023-04-15T02:16:30;11.70;;;3.70;;
3249;SDS011;1637;42.020;23.992;2023-04-15T02:18:59;8.17;;;3.50;;
3249;SDS011;1637;42.020;23.992;2023-04-15T02:21:26;12.87;;;6.67;;
3249;SDS011;1637;42.020;23.992;2023-04-15T02:23:53;8.50;;;6.50;;
3249;SDS011;1637;42.020;23.992;2023-04-15T02:26:20;6.97;;;5.30;;
3249;SDS011;1637;42.020;23.992;2023-04-15T02:28:47;11.30;;;3.40;;
3249;SDS011;1637;42.020;23.992;2023-04-15T02:31:15;8.57;;;4.10;;
3249;SDS011;1637;42.020;23.992;2023-04-15T02:33:42;6.03;;;3.30;;
3249;SDS011;1637;42.020;23.992;2023-04-15T02:36:10;9.10;;;3.20;;
3249;SDS011;1637;42.020;23.992;2023-04-15T02:38:37;7.50;;;3.90;;
3249;SDS011;1637;42.020;23.992;2023-04-15T02:41:05;6.40;;;3.10;;
3249;SDS011;1637;42.020;23.992;2023-04-15T02:43:32;7.30;;;3.40;;
3249;SDS011;1637;42.020;23.992;2023-04-15T02:45:59;8.83;;;4.20;;
3249;SDS011;1637;42.020;23.992;2023-04-15T02:48:26;4.80;;;3.00;;
3249;SDS011;1637;42.020;23.992;2023-04-15T02:50:53;7.40;;;4.40;;
3249;SDS011;1637;42.020;23.992;2023-04-15T02:53:37;7.80;;;4.00;;
3249;SDS011;1637;42.020;23.992;2023-04-15T02:56:04;7.60;;;4.20;;
3249;SDS011;1637;42.020;23.992;2023-04-15T02:58:32;9.83;;;5.00;;
3249;SDS011;1637;42.020;23.992;2023-04-15T03:00:59;13.60;;;7.23;;
3249;SDS011;1637;42.020;23.992;2023-04-15T03:03:26;18.70;;;10.50;;
3249;SDS011;1637;42.020;23.992;2023-04-15T03:05:53;24.47;;;11.70;;
3249;SDS011;1637;42.020;23.992;2023-04-15T03:08:20;24.70;;;12.17;;
3249;SDS011;1637;42.020;23.992;2023-04-15T03:10:48;21.10;;;11.63;;
3249;SDS011;1637;42.020;23.992;2023-04-15T03:13:16;11.57;;;6.60;;
3249;SDS011;1637;42.020;23.992;2023-04-15T03:15:45;11.33;;;6.70;;
3249;SDS011;1637;42.020;23.992;2023-04-15T03:18:12;18.17;;;8.27;;
3249;SDS011;1637;42.020;23.992;2023-04-15T03:20:38;13.80;;;7.10;;
3249;SDS011;1637;42.020;23.992;2023-04-15T03:23:05;14.47;;;6.97;;
3249;SDS011;1637;42.020;23.992;2023-04-15T03:25:32;8.43;;;5.83;;
3249;SDS011;1637;42.020;23.992;2023-04-15T03:28:02;7.57;;;5.20;;
3249;SDS011;1637;42.020;23.992;2023-04-15T03:30:29;11.07;;;6.40;;
3249;SDS011;1637;42.020;23.992;2023-04-15T03:32:56;10.43;;;5.97;;
3249;SDS011;1637;42.020;23.992;2023-04-15T03:35:23;17.97;;;7.43;;
3249;SDS011;1637;42.020;23.992;2023-04-15T03:37:50;15.33;;;7.03;;
3249;SDS011;1637;42.020;23.992;2023-04-15T03:40:17;14.63;;;6.70;;
3249;SDS011;1637;42.020;23.992;2023-04-15T03:42:44;15.90;;;8.87;;
3249;SDS011;1637;42.020;23.992;2023-04-15T03:45:12;13.50;;;7.10;;
3249;SDS011;1637;42.020;23.992;2023-04-15T03:47:39;20.10;;;7.67;;
3249;SDS011;1637;42.020;23.992;2023-04-15T03:50:06;16.73;;;10.00;;
3249;SDS011;1637;42.020;23.992;2023-04-15T03:52:33;13.53;;;8.10;;
3249;SDS011;1637;42.020;23.992;2023-04-15T03:55:00;11.53;;;6.80;;
3249;SDS011;1637;42.020;23.992;2023-04-15T03:57:27;17.43;;;8.47;;
3249;SDS011;1637;42.020;23.992;2023-04-15T03:59:54;13.33;;;8.23;;
3249;SDS011;1637;42.020;23.992;2023-04-15T04:02:22;22.57;;;9.67;;
3249;SDS011;1637;42.020;23.992;2023-04-15T04:04:49;32.93;;;16.27;;
3249;SDS011;1637;42.020;23.992;2023-04-15T04:07:16;54.43;;;18.67;;
3249;SDS011;1637;42.020;23.992;2023-04-15T04:09:43;21.10;;;10.60;;
3249;SDS011;1637;42.020;23.992;2023-04-15T04:12:10;17.33;;;8.00;;
3249;SDS011;1637;42.020;23.992;2023-04-15T04:14:37;13.50;;;7.80;;
3249;SDS011;1637;42.020;23.992;2023-04-15T04:17:04;13.63;;;6.30;;
3249;SDS011;1637;42.020;23.992;2023-04-15T04:19:32;9.07;;;5.43;;
3249;SDS011;1637;42.020;23.992;2023-04-15T04:21:59;10.80;;;5.07;;
3249;SDS011;1637;42.020;23.992;2023-04-15T04:24:26;12.83;;;5.20;;
3249;SDS011;1637;42.020;23.992;2023-04-15T04:26:53;22.60;;;9.23;;
3249;SDS011;1637;42.020;23.992;2023-04-15T04:29:20;16.33;;;9.53;;
3249;SDS011;1637;42.020;23.992;2023-04-15T04:31:47;11.53;;;6.20;;
3249;SDS011;1637;42.020;23.992;2023-04-15T04:34:14;18.10;;;6.70;;
3249;SDS011;1637;42.020;23.992;2023-04-15T04:36:42;12.90;;;6.10;;
3249;SDS011;1637;42.020;23.992;2023-04-15T04:39:09;12.40;;;6.30;;
3249;SDS011;1637;42.020;23.992;2023-04-15T04:41:36;10.17;;;5.90;;
3249;SDS011;1637;42.020;23.992;2023-04-15T04:44:03;23.90;;;6.20;;
3249;SDS011;1637;42.020;23.992;2023-04-15T04:46:30;7.43;;;5.23;;
3249;SDS011;1637;42.020;23.992;2023-04-15T04:48:56;6.30;;;3.60;;
3249;SDS011;1637;42.020;23.992;2023-04-15T04:51:23;4.80;;;3.20;;
3249;SDS011;1637;42.020;23.992;2023-04-15T04:53:52;18.63;;;7.33;;
3249;SDS011;1637;42.020;23.992;2023-04-15T04:56:21;10.77;;;4.73;;
3249;SDS011;1637;42.020;23.992;2023-04-15T04:58:48;7.23;;;4.10;;
3249;SDS011;1637;42.020;23.992;2023-04-15T05:01:15;21.77;;;10.33;;
3249;SDS011;1637;42.020;23.992;2023-04-15T05:03:42;51.17;;;17.93;;
3249;SDS011;1637;42.020;23.992;2023-04-15T05:06:09;26.30;;;13.40;;
3249;SDS011;1637;42.020;23.992;2023-04-15T05:08:36;22.65;;;10.95;;
3249;SDS011;1637;42.020;23.992;2023-04-15T05:11:04;16.93;;;7.97;;
3249;SDS011;1637;42.020;23.992;2023-04-15T05:13:31;17.43;;;7.43;;
3249;SDS011;1637;42.020;23.992;2023-04-15T05:15:58;7.20;;;4.50;;
3249;SDS011;1637;42.020;23.992;2023-04-15T05:18:25;15.00;;;8.87;;
3249;SDS011;1637;42.020;23.992;2023-04-15T05:20:51;12.43;;;6.17;;
3249;SDS011;1637;42.020;23.992;2023-04-15T05:23:18;11.00;;;6.80;;
3249;SDS011;1637;42.020;23.992;2023-04-15T05:25:45;26.53;;;11.80;;
3249;SDS011;1637;42.020;23.992;2023-04-15T05:28:13;22.67;;;15.40;;
3249;SDS011;1637;42.020;23.992;2023-04-15T05:30:40;21.57;;;12.70;;
3249;SDS011;1637;42.020;23.992;2023-04-15T05:33:07;26.60;;;14.67;;
3249;SDS011;1637;42.020;23.992;2023-04-15T05:35:34;32.77;;;17.10;;
3249;SDS011;1637;42.020;23.992;2023-04-15T05:38:01;18.50;;;11.00;;
3249;SDS011;1637;42.020;23.992;2023-04-15T05:40:27;17.10;;;9.47;;
3249;SDS011;1637;42.020;23.992;2023-04-15T05:42:55;25.73;;;12.53;;
3249;SDS011;1637;42.020;23.992;2023-04-15T05:45:23;17.53;;;9.40;;
3249;SDS011;1637;42.020;23.992;2023-04-15T05:47:51;17.33;;;9.30;;
3249;SDS011;1637;42.020;23.992;2023-04-15T05:50:18;16.90;;;8.93;;
3249;SDS011;1637;42.020;23.992;2023-04-15T05:52:45;18.80;;;7.30;;
3249;SDS011;1637;42.020;23.992;2023-04-15T05:55:12;11.53;;;7.07;;
3249;SDS011;1637;42.020;23.992;2023-04-15T05:57:39;32.73;;;8.40;;
3249;SDS011;1637;42.020;23.992;2023-04-15T06:00:06;10.20;;;8.00;;
3249;SDS011;1637;42.020;23.992;2023-04-15T06:02:35;17.40;;;10.00;;
3249;SDS011;1637;42.020;23.992;2023-04-15T06:05:02;10.10;;;6.37;;
3249;SDS011;1637;42.020;23.992;2023-04-15T06:07:33;15.90;;;6.60;;
3249;SDS011;1637;42.020;23.992;2023-04-15T06:10:00;10.27;;;7.00;;
3249;SDS011;1637;42.020;23.992;2023-04-15T06:12:27;10.13;;;6.70;;
3249;SDS011;1637;42.020;23.992;2023-04-15T06:14:54;10.10;;;6.83;;
3249;SDS011;1637;42.020;23.992;2023-04-15T06:17:21;23.47;;;12.33;;
3249;SDS011;1637;42.020;23.992;2023-04-15T06:19:49;12.23;;;7.97;;
3249;SDS011;1637;42.020;23.992;2023-04-15T06:22:19;11.90;;;6.07;;
3249;SDS011;1637;42.020;23.992;2023-04-15T06:24:46;9.03;;;5.20;;
3249;SDS011;1637;42.020;23.992;2023-04-15T06:27:13;7.93;;;4.40;;
3249;SDS011;1637;42.020;23.992;2023-04-15T06:29:40;14.43;;;7.67;;
3249;SDS011;1637;42.020;23.992;2023-04-15T06:32:07;17.00;;;5.10;;
3249;SDS011;1637;42.020;23.992;2023-04-15T06:34:33;5.47;;;4.93;;
3249;SDS011;1637;42.020;23.992;2023-04-15T06:37:02;8.43;;;3.77;;
3249;SDS011;1637;42.020;23.992;2023-04-15T06:39:28;33.53;;;5.47;;
3249;SDS011;1637;42.020;23.992;2023-04-15T06:41:56;6.93;;;3.50;;
3249;SDS011;1637;42.020;23.992;2023-04-15T06:44:23;8.93;;;4.10;;
3249;SDS011;1637;42.020;23.992;2023-04-15T06:46:49;4.83;;;3.80;;
3249;SDS011;1637;42.020;23.992;2023-04-15T06:49:16;9.20;;;4.50;;
3249;SDS011;1637;42.020;23.992;2023-04-15T06:51:43;5.70;;;3.37;;
3249;SDS011;1637;42.020;23.992;2023-04-15T06:54:11;6.27;;;4.00;;
3249;SDS011;1637;42.020;23.992;2023-04-15T06:56:38;7.67;;;3.57;;
3249;SDS011;1637;42.020;23.992;2023-04-15T06:59:06;12.30;;;4.40;;
3249;SDS011;1637;42.020;23.992;2023-04-15T07:01:32;5.10;;;3.37;;
3249;SDS011;1637;42.020;23.992;2023-04-15T07:03:59;5.67;;;3.87;;
3249;SDS011;1637;42.020;23.992;2023-04-15T07:06:26;4.57;;;3.50;;
3249;SDS011;1637;42.020;23.992;2023-04-15T07:08:53;4.80;;;3.10;;
3249;SDS011;1637;42.020;23.992;2023-04-15T07:11:24;9.27;;;6.63;;
3249;SDS011;1637;42.020;23.992;2023-04-15T07:13:51;6.37;;;3.33;;
3249;SDS011;1637;42.020;23.992;2023-04-15T07:16:18;7.80;;;3.00;;
3249;SDS011;1637;42.020;23.992;2023-04-15T07:18:45;6.17;;;3.10;;
3249;SDS011;1637;42.020;23.992;2023-04-15T07:21:12;5.70;;;2.83;;
3249;SDS011;1637;42.020;23.992;2023-04-15T07:23:38;8.00;;;3.17;;
3249;SDS011;1637;42.020;23.992;2023-04-15T07:26:05;6.40;;;3.03;;
3249;SDS011;1637;42.020;23.992;2023-04-15T07:28:33;4.17;;;2.00;;
3249;SDS011;1637;42.020;23.992;2023-04-15T07:31:00;8.20;;;3.03;;
3249;SDS011;1637;42.020;23.992;2023-04-15T07:33:27;4.87;;;2.17;;
3249;SDS011;1637;42.020;23.992;2023-04-15T07:35:54;2.23;;;1.40;;
3249;SDS011;1637;42.020;23.992;2023-04-15T07:38:21;2.90;;;1.50;;
3249;SDS011;1637;42.020;23.992;2023-04-15T07:40:48;6.23;;;2.13;;
3249;SDS011;1637;42.020;23.992;2023-04-15T07:43:14;4.37;;;1.60;;
3249;SDS011;1637;42.020;23.992;2023-04-15T07:45:43;5.23;;;3.07;;
3249;SDS011;1637;42.020;23.992;2023-04-15T07:48:10;5.00;;;3.07;;
3249;SDS011;1637;42.020;23.992;2023-04-15T07:50:37;5.33;;;2.07;;
3249;SDS011;1637;42.020;23.992;2023-04-15T07:53:04;2.73;;;1.37;;
3249;SDS011;1637;42.020;23.992;2023-04-15T07:55:31;3.30;;;1.57;;
3249;SDS011;1637;42.020;23.992;2023-04-15T07:57:58;2.73;;;1.40;;
3249;SDS011;1637;42.020;23.992;2023-04-15T08:00:25;2.30;;;1.20;;
3249;SDS011;1637;42.020;23.992;2023-04-15T08:02:53;5.77;;;2.10;;
3249;SDS011;1637;42.020;23.992;2023-04-15T08:05:23;2.63;;;1.20;;
3249;SDS011;1637;42.020;23.992;2023-04-15T08:07:50;10.90;;;3.90;;
3249;SDS011;1637;42.020;23.992;2023-04-15T08:10:17;2.00;;;1.07;;
3249;SDS011;1637;42.020;23.992;2023-04-15T08:12:44;2.23;;;1.20;;
3249;SDS011;1637;42.020;23.992;2023-04-15T08:15:13;3.33;;;2.40;;
3249;SDS011;1637;42.020;23.992;2023-04-15T08:17:40;8.70;;;2.63;;
3249;SDS011;1637;42.020;23.992;2023-04-15T08:20:09;1.60;;;1.47;;
3249;SDS011;1637;42.020;23.992;2023-04-15T08:22:37;5.77;;;2.10;;
3249;SDS011;1637;42.020;23.992;2023-04-15T08:25:04;11.67;;;6.37;;
3249;SDS011;1637;42.020;23.992;2023-04-15T08:27:31;4.13;;;1.20;;
3249;SDS011;1637;42.020;23.992;2023-04-15T08:29:58;5.03;;;1.10;;
3249;SDS011;1637;42.020;23.992;2023-04-15T08:32:25;6.27;;;1.80;;
3249;SDS011;1637;42.020;23.992;2023-04-15T08:34:51;4.03;;;1.73;;
3249;SDS011;1637;42.020;23.992;2023-04-15T08:37:20;5.23;;;2.43;;
3249;SDS011;1637;42.020;23.992;2023-04-15T08:39:47;8.40;;;1.83;;
3249;SDS011;1637;42.020;23.992;2023-04-15T08:42:15;5.40;;;1.80;;
3249;SDS011;1637;42.020;23.992;2023-04-15T08:44:42;2.13;;;1.50;;
3249;SDS011;1637;42.020;23.992;2023-04-15T08:47:12;1.10;;;1.00;;
3249;SDS011;1637;42.020;23.992;2023-04-15T08:49:40;3.73;;;1.20;;
3249;SDS011;1637;42.020;23.992;2023-04-15T08:52:08;4.60;;;1.50;;
3249;SDS011;1637;42.020;23.992;2023-04-15T08:54:38;2.90;;;0.90;;
3249;SDS011;1637;42.020;23.992;2023-04-15T08:57:06;2.50;;;1.17;;
3249;SDS011;1637;42.020;23.992;2023-04-15T08:59:33;3.10;;;0.83;;
3249;SDS011;1637;42.020;23.992;2023-04-15T09:02:00;5.37;;;1.90;;
3249;SDS011;1637;42.020;23.992;2023-04-15T09:04:28;5.17;;;3.40;;
3249;SDS011;1637;42.020;23.992;2023-04-15T09:06:55;3.00;;;1.10;;
3249;SDS011;1637;42.020;23.992;2023-04-15T09:09:22;4.33;;;1.43;;
3249;SDS011;1637;42.020;23.992;2023-04-15T09:11:50;2.83;;;0.70;;
3249;SDS011;1637;42.020;23.992;2023-04-15T09:14:17;2.17;;;1.10;;
3249;SDS011;1637;42.020;23.992;2023-04-15T09:16:57;2.17;;;1.10;;
3249;SDS011;1637;42.020;23.992;2023-04-15T09:19:28;4.43;;;1.27;;
3249;SDS011;1637;42.020;23.992;2023-04-15T09:21:58;5.00;;;1.80;;
3249;SDS011;1637;42.020;23.992;2023-04-15T09:24:27;6.90;;;2.03;;
3249;SDS011;1637;42.020;23.992;2023-04-15T09:27:02;2.23;;;1.50;;
3249;SDS011;1637;42.020;23.992;2023-04-15T09:29:30;5.93;;;1.60;;
3249;SDS011;1637;42.020;23.992;2023-04-15T09:31:57;2.03;;;0.90;;
3249;SDS011;1637;42.020;23.992;2023-04-15T09:34:35;1.33;;;1.00;;
3249;SDS011;1637;42.020;23.992;2023-04-15T09:37:02;1.37;;;0.87;;
3249;SDS011;1637;42.020;23.992;2023-04-15T09:39:37;6.33;;;1.60;;
3249;SDS011;1637;42.020;23.992;2023-04-15T09:42:12;6.20;;;1.60;;
3249;SDS011;1637;42.020;23.992;2023-04-15T09:44:39;7.10;;;1.60;;
3249;SDS011;1637;42.020;23.992;2023-04-15T09:47:06;1.13;;;1.00;;
3249;SDS011;1637;42.020;23.992;2023-04-15T09:49:33;1.43;;;0.73;;
3249;SDS011;1637;42.020;23.992;2023-04-15T09:52:00;1.50;;;0.90;;
3249;SDS011;1637;42.020;23.992;2023-04-15T09:54:32;6.07;;;1.07;;
3249;SDS011;1637;42.020;23.992;2023-04-15T09:57:06;1.60;;;1.30;;
3249;SDS011;1637;42.020;23.992;2023-04-15T09:59:35;5.70;;;1.30;;
3249;SDS011;1637;42.020;23.992;2023-04-15T10:02:03;1.53;;;0.70;;
3249;SDS011;1637;42.020;23.992;2023-04-15T10:04:32;4.60;;;1.10;;
3249;SDS011;1637;42.020;23.992;2023-04-15T10:07:02;12.10;;;3.60;;
3249;SDS011;1637;42.020;23.992;2023-04-15T10:09:30;5.07;;;3.00;;
3249;SDS011;1637;42.020;23.992;2023-04-15T10:11:58;7.60;;;3.70;;
3249;SDS011;1637;42.020;23.992;2023-04-15T10:14:26;4.10;;;1.43;;
3249;SDS011;1637;42.020;23.992;2023-04-15T10:16:59;2.70;;;0.90;;
3249;SDS011;1637;42.020;23.992;2023-04-15T10:19:28;6.43;;;1.00;;
3249;SDS011;1637;42.020;23.992;2023-04-15T10:21:57;2.13;;;0.87;;
3249;SDS011;1637;42.020;23.992;2023-04-15T10:24:24;5.33;;;1.00;;
3249;SDS011;1637;42.020;23.992;2023-04-15T10:26:52;0.90;;;0.60;;
3249;SDS011;1637;42.020;23.992;2023-04-15T10:29:22;3.10;;;1.50;;
3249;SDS011;1637;42.020;23.992;2023-04-15T10:31:51;2.83;;;1.23;;
3249;SDS011;1637;42.020;23.992;2023-04-15T10:34:21;1.87;;;1.00;;
3249;SDS011;1637;42.020;23.992;2023-04-15T10:36:49;5.93;;;0.97;;
3249;SDS011;1637;42.020;23.992;2023-04-15T10:42:05;1.17;;;1.07;;
3249;SDS011;1637;42.020;23.992;2023-04-15T10:44:33;0.90;;;0.63;;
3249;SDS011;1637;42.020;23.992;2023-04-15T10:47:03;1.13;;;0.83;;
3249;SDS011;1637;42.020;23.992;2023-04-15T10:49:36;1.30;;;0.83;;
3249;SDS011;1637;42.020;23.992;2023-04-15T10:52:09;3.30;;;0.90;;
3249;SDS011;1637;42.020;23.992;2023-04-15T10:54:36;2.30;;;1.80;;
3249;SDS011;1637;42.020;23.992;2023-04-15T10:57:07;2.10;;;0.93;;
3249;SDS011;1637;42.020;23.992;2023-04-15T10:59:36;0.83;;;0.53;;
3249;SDS011;1637;42.020;23.992;2023-04-15T11:02:04;1.37;;;0.80;;
3249;SDS011;1637;42.020;23.992;2023-04-15T11:07:35;1.87;;;0.80;;
3249;SDS011;1637;42.020;23.992;2023-04-15T11:10:03;2.17;;;0.90;;
3249;SDS011;1637;42.020;23.992;2023-04-15T11:13:19;1.30;;;0.80;;
3249;SDS011;1637;42.020;23.992;2023-04-15T11:15:59;2.30;;;0.73;;
3249;SDS011;1637;42.020;23.992;2023-04-15T11:18:27;4.80;;;1.13;;
3249;SDS011;1637;42.020;23.992;2023-04-15T11:20:57;1.30;;;1.00;;
3249;SDS011;1637;42.020;23.992;2023-04-15T11:23:29;2.10;;;1.20;;
3249;SDS011;1637;42.020;23.992;2023-04-15T11:25:58;2.50;;;1.57;;
3249;SDS011;1637;42.020;23.992;2023-04-15T11:28:27;3.07;;;1.70;;
3249;SDS011;1637;42.020;23.992;2023-04-15T11:30:55;3.20;;;1.40;;
3249;SDS011;1637;42.020;23.992;2023-04-15T11:33:22;2.50;;;0.90;;
3249;SDS011;1637;42.020;23.992;2023-04-15T11:35:51;0.97;;;0.80;;
3249;SDS011;1637;42.020;23.992;2023-04-15T11:38:21;1.20;;;0.80;;
3249;SDS011;1637;42.020;23.992;2023-04-15T11:40:48;4.30;;;1.60;;
3249;SDS011;1637;42.020;23.992;2023-04-15T11:43:17;2.80;;;2.10;;
3249;SDS011;1637;42.020;23.992;2023-04-15T11:45:48;1.77;;;1.10;;
3249;SDS011;1637;42.020;23.992;2023-04-15T11:48:17;3.73;;;1.30;;
3249;SDS011;1637;42.020;23.992;2023-04-15T11:50:44;2.00;;;1.80;;
3249;SDS011;1637;42.020;23.992;2023-04-15T11:53:11;1.83;;;1.40;;
3249;SDS011;1637;42.020;23.992;2023-04-15T11:55:41;4.87;;;1.30;;
3249;SDS011;1637;42.020;23.992;2023-04-15T11:58:11;1.70;;;1.00;;
3249;SDS011;1637;42.020;23.992;2023-04-15T12:00:39;2.97;;;1.10;;
3249;SDS011;1637;42.020;23.992;2023-04-15T12:03:16;1.50;;;1.00;;
3249;SDS011;1637;42.020;23.992;2023-04-15T12:08:49;5.07;;;2.13;;
3249;SDS011;1637;42.020;23.992;2023-04-15T12:11:19;8.20;;;3.20;;
3249;SDS011;1637;42.020;23.992;2023-04-15T12:13:46;4.77;;;2.63;;
3249;SDS011;1637;42.020;23.992;2023-04-15T12:16:15;2.77;;;1.70;;
3249;SDS011;1637;42.020;23.992;2023-04-15T12:18:43;2.63;;;1.80;;
3249;SDS011;1637;42.020;23.992;2023-04-15T12:21:11;1.33;;;1.00;;
3249;SDS011;1637;42.020;23.992;2023-04-15T12:23:39;1.70;;;1.10;;
3249;SDS011;1637;42.020;23.992;2023-04-15T12:26:13;4.23;;;1.30;;
3249;SDS011;1637;42.020;23.992;2023-04-15T12:28:41;6.23;;;2.90;;
3249;SDS011;1637;42.020;23.992;2023-04-15T12:31:08;3.93;;;2.03;;
3249;SDS011;1637;42.020;23.992;2023-04-15T12:33:35;2.77;;;1.70;;
3249;SDS011;1637;42.020;23.992;2023-04-15T12:36:03;2.30;;;1.37;;
3249;SDS011;1637;42.020;23.992;2023-04-15T12:38:30;1.47;;;1.00;;
3249;SDS011;1637;42.020;23.992;2023-04-15T12:40:57;3.10;;;1.80;;
3249;SDS011;1637;42.020;23.992;2023-04-15T12:43:24;2.17;;;1.60;;
3249;SDS011;1637;42.020;23.992;2023-04-15T12:45:52;1.70;;;1.47;;
3249;SDS011;1637;42.020;23.992;2023-04-15T12:48:19;2.80;;;1.37;;
3249;SDS011;1637;42.020;23.992;2023-04-15T12:50:46;2.80;;;1.63;;
3249;SDS011;1637;42.020;23.992;2023-04-15T12:53:13;1.50;;;1.30;;
3249;SDS011;1637;42.020;23.992;2023-04-15T12:55:40;4.63;;;1.60;;
3249;SDS011;1637;42.020;23.992;2023-04-15T12:58:07;5.23;;;2.17;;
3249;SDS011;1637;42.020;23.992;2023-04-15T13:00:35;1.57;;;1.27;;
3249;SDS011;1637;42.020;23.992;2023-04-15T13:03:04;2.80;;;1.40;;
3249;SDS011;1637;42.020;23.992;2023-04-15T13:05:31;1.63;;;1.37;;
3249;SDS011;1637;42.020;23.992;2023-04-15T13:07:58;2.23;;;1.17;;
3249;SDS011;1637;42.020;23.992;2023-04-15T13:10:24;3.27;;;1.50;;
3249;SDS011;1637;42.020;23.992;2023-04-15T13:12:52;1.60;;;1.50;;
3249;SDS011;1637;42.020;23.992;2023-04-15T13:15:20;0.80;;;0.70;;
3249;SDS011;1637;42.020;23.992;2023-04-15T13:17:47;2.67;;;1.10;;
3249;SDS011;1637;42.020;23.992;2023-04-15T13:20:16;1.43;;;0.93;;
3249;SDS011;1637;42.020;23.992;2023-04-15T13:22:43;1.83;;;0.70;;
3249;SDS011;1637;42.020;23.992;2023-04-15T13:25:10;1.17;;;0.80;;
3249;SDS011;1637;42.020;23.992;2023-04-15T13:27:37;1.33;;;0.80;;
3249;SDS011;1637;42.020;23.992;2023-04-15T13:30:04;1.53;;;0.83;;
3249;SDS011;1637;42.020;23.992;2023-04-15T13:32:32;0.93;;;0.73;;
3249;SDS011;1637;42.020;23.992;2023-04-15T13:34:59;3.33;;;1.67;;
3249;SDS011;1637;42.020;23.992;2023-04-15T13:37:28;23.30;;;7.60;;
3249;SDS011;1637;42.020;23.992;2023-04-15T13:39:55;10.87;;;3.10;;
3249;SDS011;1637;42.020;23.992;2023-04-15T13:42:22;4.17;;;2.50;;
3249;SDS011;1637;42.020;23.992;2023-04-15T13:44:50;16.50;;;6.47;;
3249;SDS011;1637;42.020;23.992;2023-04-15T13:47:16;3.50;;;1.60;;
3249;SDS011;1637;42.020;23.992;2023-04-15T13:49:45;5.33;;;2.60;;
3249;SDS011;1637;42.020;23.992;2023-04-15T13:52:12;3.90;;;2.20;;
3249;SDS011;1637;42.020;23.992;2023-04-15T13:54:40;11.73;;;1.80;;
3249;SDS011;1637;42.020;23.992;2023-04-15T13:57:07;6.27;;;2.83;;
3249;SDS011;1637;42.020;23.992;2023-04-15T13:59:34;49.43;;;18.37;;
3249;SDS011;1637;42.020;23.992;2023-04-15T14:02:01;56.17;;;22.20;;
3249;SDS011;1637;42.020;23.992;2023-04-15T14:04:27;10.17;;;4.83;;
3249;SDS011;1637;42.020;23.992;2023-04-15T14:06:55;9.40;;;3.70;;
3249;SDS011;1637;42.020;23.992;2023-04-15T14:09:22;3.10;;;1.00;;
3249;SDS011;1637;42.020;23.992;2023-04-15T14:11:50;2.90;;;1.60;;
3249;SDS011;1637;42.020;23.992;2023-04-15T14:14:17;4.87;;;2.53;;
3249;SDS011;1637;42.020;23.992;2023-04-15T14:16:44;4.93;;;2.40;;
3249;SDS011;1637;42.020;23.992;2023-04-15T14:19:12;23.43;;;9.50;;
3249;SDS011;1637;42.020;23.992;2023-04-15T14:21:38;37.63;;;16.33;;
3249;SDS011;1637;42.020;23.992;2023-04-15T14:24:05;8.53;;;3.90;;
3249;SDS011;1637;42.020;23.992;2023-04-15T14:26:32;2.40;;;1.43;;
3249;SDS011;1637;42.020;23.992;2023-04-15T14:29:00;14.27;;;5.00;;
3249;SDS011;1637;42.020;23.992;2023-04-15T14:31:27;12.83;;;5.30;;
3249;SDS011;1637;42.020;23.992;2023-04-15T14:33:54;25.33;;;9.47;;
3249;SDS011;1637;42.020;23.992;2023-04-15T14:36:21;24.40;;;8.20;;
3249;SDS011;1637;42.020;23.992;2023-04-15T14:38:48;6.13;;;3.83;;
3249;SDS011;1637;42.020;23.992;2023-04-15T14:41:15;1.73;;;0.90;;
3249;SDS011;1637;42.020;23.992;2023-04-15T14:43:42;1.73;;;0.90;;
3249;SDS011;1637;42.020;23.992;2023-04-15T14:46:10;1.53;;;1.00;;
3249;SDS011;1637;42.020;23.992;2023-04-15T14:48:38;1.30;;;1.00;;
3249;SDS011;1637;42.020;23.992;2023-04-15T14:51:05;4.93;;;1.67;;
3249;SDS011;1637;42.020;23.992;2023-04-15T14:53:32;4.17;;;1.17;;
3249;SDS011;1637;42.020;23.992;2023-04-15T14:55:59;4.50;;;2.03;;
3249;SDS011;1637;42.020;23.992;2023-04-15T14:58:26;1.87;;;0.90;;
3249;SDS011;1637;42.020;23.992;2023-04-15T15:00:52;1.33;;;0.80;;
3249;SDS011;1637;42.020;23.992;2023-04-15T15:03:21;1.40;;;1.10;;
3249;SDS011;1637;42.020;23.992;2023-04-15T15:05:48;1.83;;;1.20;;
3249;SDS011;1637;42.020;23.992;2023-04-15T15:08:15;3.80;;;1.40;;